»·PEaware :: N2PD KBFL-KSNA

N2PD :: KBFL-KSNA

FLIGHT INFORMATION

Flight Status: Arrived
Operator: Privately registered:
United States
More flights under this callsign
Pilot: Daniel P. (20187)
Aircraft: SOCATA TBM-900
(TBM9)
More flights by this aircraft type
Origin: KBFL Meadows
United States
Destination: KSNA John Wayne-Orange Co
United States
More flights between these airports :: More routes between these airports
Route: LHS V459 SLI
File this flight plan on PilotEdge
Remarks:
Altitude:
(Current/Filed)
90ft
Speed:
(Current/Filed)
200kts
Departed: 02-Dec-18 10:16 AM
Arrived: 02-Dec-18 11:12 AM
Distance/Time
Traveled:
121nm/0:56
Distance/Time
To Go:
Arrived

Flight Plot

Page will automatically refresh every two minutes.


Map Options




Map Legend


Flown Route
Filed Route
Departure Airport
Arrival Airport
Navaid (VOR, NDB)
Fix

Horizontal Profiles

Position Reports

Time Latitude Longitude Heading Altitude Ground
Speed
02-Dec-18 10:03 35.429375 -119.046095 226 494ft 0kts
02-Dec-18 10:04 35.429375 -119.046095 226 494ft 0kts
02-Dec-18 10:05 35.429375 -119.046095 226 494ft 0kts
02-Dec-18 10:06 35.429375 -119.046095 226 494ft 0kts
02-Dec-18 10:07 35.429375 -119.046095 226 494ft 0kts
02-Dec-18 10:08 35.429375 -119.046095 226 494ft 0kts
02-Dec-18 10:09 35.429375 -119.046095 226 494ft 0kts
02-Dec-18 10:10 35.429375 -119.046096 226 494ft 0kts
02-Dec-18 10:11 35.429375 -119.046096 226 494ft 0kts
02-Dec-18 10:12 35.429375 -119.046096 226 494ft 0kts
02-Dec-18 10:13 35.429375 -119.046096 226 494ft 0kts
02-Dec-18 10:14 35.429375 -119.046096 226 494ft 0kts
02-Dec-18 10:15 35.428687 -119.046928 225 490ft 8kts
02-Dec-18 10:16 35.426301 -119.044798 134 481ft 12kts
02-Dec-18 10:17 35.425688 -119.044802 227 479ft 0kts
02-Dec-18 10:18 35.425715 -119.046394 314 476ft 10kts
02-Dec-18 10:19 35.442863 -119.066911 313 1439ft 119kts
02-Dec-18 10:20 35.469264 -119.101729 313 3061ft 159kts
02-Dec-18 10:21 35.502650 -119.146664 313 3066ft 186kts
02-Dec-18 10:22 35.537376 -119.193867 313 3067ft 186kts
02-Dec-18 10:23 35.523218 -119.233307 161 4347ft 189kts
02-Dec-18 10:24 35.478975 -119.201125 145 6336ft 186kts
02-Dec-18 10:25 35.433385 -119.165176 145 8358ft 203kts
02-Dec-18 10:26 35.381619 -119.124200 146 9071ft 247kts
02-Dec-18 10:27 35.323409 -119.078187 146 9056ft 252kts
02-Dec-18 10:28 35.265033 -119.032103 146 9055ft 249kts
02-Dec-18 10:29 35.207071 -118.986413 146 9056ft 247kts
02-Dec-18 10:30 35.149875 -118.941415 147 9048ft 244kts
02-Dec-18 10:31 35.092851 -118.896631 147 9030ft 242kts
02-Dec-18 10:32 35.036703 -118.852610 148 9002ft 240kts
02-Dec-18 10:33 34.980898 -118.808924 148 9015ft 241kts
02-Dec-18 10:34 34.923976 -118.764453 148 9011ft 247kts
02-Dec-18 10:35 34.866873 -118.719920 148 9009ft 255kts
02-Dec-18 10:36 34.807000 -118.673285 148 9007ft 258kts
02-Dec-18 10:37 34.746793 -118.626477 148 9004ft 259kts
02-Dec-18 10:38 34.685998 -118.579369 150 9003ft 259kts
02-Dec-18 10:39 34.621497 -118.540864 156 9011ft 258kts
02-Dec-18 10:40 34.556816 -118.502960 156 9015ft 259kts
02-Dec-18 10:41 34.491972 -118.465045 156 9008ft 259kts
02-Dec-18 10:42 34.426981 -118.427087 156 9006ft 260kts
02-Dec-18 10:43 34.361848 -118.389123 155 9006ft 260kts
02-Dec-18 10:44 34.296709 -118.351240 155 8998ft 261kts
02-Dec-18 10:45 34.234115 -118.314888 155 8983ft 260kts
02-Dec-18 10:46 34.168963 -118.277088 155 8985ft 260kts
02-Dec-18 10:47 34.103774 -118.239349 155 8989ft 259kts
02-Dec-18 10:48 34.038859 -118.201843 154 8992ft 259kts
02-Dec-18 10:49 33.974584 -118.164774 153 8979ft 242kts
02-Dec-18 10:50 33.920617 -118.133699 151 8972ft 198kts
02-Dec-18 10:51 33.872207 -118.118749 191 8952ft 188kts
02-Dec-18 10:52 33.818386 -118.127773 191 8081ft 193kts
02-Dec-18 10:53 33.766687 -118.135884 191 7159ft 184kts
02-Dec-18 10:54 33.732351 -118.115054 68 6539ft 153kts
02-Dec-18 10:55 33.762536 -118.077276 36 5861ft 169kts
02-Dec-18 10:56 33.792192 -118.032681 59 5074ft 172kts
02-Dec-18 10:57 33.812687 -117.981851 61 4254ft 167kts
02-Dec-18 10:58 33.832542 -117.932433 61 3978ft 163kts
02-Dec-18 10:59 33.852246 -117.883348 62 3976ft 163kts
02-Dec-18 11:00 33.871858 -117.834434 62 3974ft 163kts
02-Dec-18 11:01 33.891479 -117.785471 64 3976ft 162kts
02-Dec-18 11:02 33.911223 -117.736052 66 3998ft 167kts
02-Dec-18 11:03 33.942321 -117.696469 25 4008ft 176kts
02-Dec-18 11:04 33.986472 -117.673835 340 3992ft 168kts
02-Dec-18 11:05 33.976901 -117.706829 164 3503ft 173kts
02-Dec-18 11:06 33.934329 -117.704340 207 3492ft 148kts
02-Dec-18 11:07 33.899667 -117.726441 207 3238ft 142kts
02-Dec-18 11:08 33.864067 -117.749134 208 3183ft 146kts
02-Dec-18 11:09 33.826688 -117.773015 207 3121ft 161kts
02-Dec-18 11:10 33.783089 -117.801111 207 2276ft 188kts
02-Dec-18 11:11 33.743369 -117.826171 208 1366ft 110kts
02-Dec-18 11:12 33.719481 -117.841247 207 897ft 86kts
02-Dec-18 11:13 33.699387 -117.853844 206 463ft 82kts
02-Dec-18 11:14 33.679249 -117.866568 207 65ft 81kts
02-Dec-18 11:15 33.670132 -117.873366 297 59ft 0kts
02-Dec-18 11:16 33.670132 -117.873366 298 59ft 0kts
02-Dec-18 11:17 33.670132 -117.873366 298 59ft 0kts
02-Dec-18 11:18 33.672371 -117.872438 26 59ft 18kts
02-Dec-18 11:19 33.673839 -117.872047 210 59ft 10kts
02-Dec-18 11:20 33.673607 -117.872555 296 59ft 0kts
02-Dec-18 11:21 33.673607 -117.872555 296 59ft 0kts
02-Dec-18 11:22 33.673607 -117.872555 296 59ft 0kts
02-Dec-18 11:23 33.673607 -117.872555 296 59ft 0kts

Navigation Log

Ident Type
Flight plan parsing failed, navigation log unavailable